sensor_id;sensor_type;location;lat;lon;timestamp;temperature;humidity
29713;DHT22;16623;53.632;10.016;2023-09-18T00:00:51;19.00;99.90
29713;DHT22;16623;53.632;10.016;2023-09-18T00:03:20;19.00;99.90
29713;DHT22;16623;53.632;10.016;2023-09-18T00:05:47;19.00;99.90
29713;DHT22;16623;53.632;10.016;2023-09-18T00:08:16;19.00;99.90
29713;DHT22;16623;53.632;10.016;2023-09-18T00:10:42;18.90;99.90
29713;DHT22;16623;53.632;10.016;2023-09-18T00:13:08;18.90;99.90
29713;DHT22;16623;53.632;10.016;2023-09-18T00:15:34;18.90;99.90
29713;DHT22;16623;53.632;10.016;2023-09-18T00:17:59;18.90;99.90
29713;DHT22;16623;53.632;10.016;2023-09-18T00:20:26;19.00;99.90
29713;DHT22;16623;53.632;10.016;2023-09-18T00:22:54;19.00;99.90
29713;DHT22;16623;53.632;10.016;2023-09-18T00:25:20;19.00;99.90
29713;DHT22;16623;53.632;10.016;2023-09-18T00:27:45;19.00;99.90
29713;DHT22;16623;53.632;10.016;2023-09-18T00:30:11;19.00;99.90
29713;DHT22;16623;53.632;10.016;2023-09-18T00:32:37;19.00;99.90
29713;DHT22;16623;53.632;10.016;2023-09-18T00:35:02;19.00;99.90
29713;DHT22;16623;53.632;10.016;2023-09-18T00:37:29;19.00;99.90
29713;DHT22;16623;53.632;10.016;2023-09-18T00:39:54;19.00;99.90
29713;DHT22;16623;53.632;10.016;2023-09-18T00:42:20;19.00;99.90
29713;DHT22;16623;53.632;10.016;2023-09-18T00:44:48;18.90;99.90
29713;DHT22;16623;53.632;10.016;2023-09-18T00:47:14;18.90;99.90
29713;DHT22;16623;53.632;10.016;2023-09-18T00:49:41;18.90;99.90
29713;DHT22;16623;53.632;10.016;2023-09-18T00:52:09;18.90;99.90
29713;DHT22;16623;53.632;10.016;2023-09-18T00:54:36;18.90;99.90
29713;DHT22;16623;53.632;10.016;2023-09-18T00:57:03;18.90;99.90
29713;DHT22;16623;53.632;10.016;2023-09-18T00:59:29;18.90;99.90
29713;DHT22;16623;53.632;10.016;2023-09-18T01:01:55;18.80;99.90
29713;DHT22;16623;53.632;10.016;2023-09-18T01:04:21;18.90;99.90
29713;DHT22;16623;53.632;10.016;2023-09-18T01:06:47;18.80;99.90
29713;DHT22;16623;53.632;10.016;2023-09-18T01:09:16;18.90;99.90
29713;DHT22;16623;53.632;10.016;2023-09-18T01:12:06;18.90;99.90
29713;DHT22;16623;53.632;10.016;2023-09-18T01:15:02;18.90;99.90
29713;DHT22;16623;53.632;10.016;2023-09-18T01:17:26;18.90;99.90
29713;DHT22;16623;53.632;10.016;2023-09-18T01:19:52;18.80;99.90
29713;DHT22;16623;53.632;10.016;2023-09-18T01:22:19;18.80;99.90
29713;DHT22;16623;53.632;10.016;2023-09-18T01:24:46;18.80;99.90
29713;DHT22;16623;53.632;10.016;2023-09-18T01:27:14;18.80;99.90
29713;DHT22;16623;53.632;10.016;2023-09-18T01:29:42;18.70;99.90
29713;DHT22;16623;53.632;10.016;2023-09-18T01:32:08;18.70;99.90
29713;DHT22;16623;53.632;10.016;2023-09-18T01:34:38;18.70;99.90
29713;DHT22;16623;53.632;10.016;2023-09-18T01:37:07;18.70;99.90
29713;DHT22;16623;53.632;10.016;2023-09-18T01:39:35;18.70;99.90
29713;DHT22;16623;53.632;10.016;2023-09-18T01:42:02;18.70;99.90
29713;DHT22;16623;53.632;10.016;2023-09-18T01:44:29;18.70;99.90
29713;DHT22;16623;53.632;10.016;2023-09-18T01:46:58;18.60;99.90
29713;DHT22;16623;53.632;10.016;2023-09-18T01:49:33;18.60;99.90
29713;DHT22;16623;53.632;10.016;2023-09-18T01:51:59;18.60;99.90
29713;DHT22;16623;53.632;10.016;2023-09-18T01:54:25;18.60;99.90
29713;DHT22;16623;53.632;10.016;2023-09-18T01:56:52;18.60;99.90
29713;DHT22;16623;53.632;10.016;2023-09-18T01:59:19;18.60;99.90
29713;DHT22;16623;53.632;10.016;2023-09-18T02:01:46;18.50;99.90
29713;DHT22;16623;53.632;10.016;2023-09-18T02:04:12;18.50;99.90
29713;DHT22;16623;53.632;10.016;2023-09-18T02:06:37;18.50;99.90
29713;DHT22;16623;53.632;10.016;2023-09-18T02:09:03;18.50;99.90
29713;DHT22;16623;53.632;10.016;2023-09-18T02:11:42;18.50;99.90
29713;DHT22;16623;53.632;10.016;2023-09-18T02:14:09;18.50;99.90
29713;DHT22;16623;53.632;10.016;2023-09-18T02:16:37;18.50;99.90
29713;DHT22;16623;53.632;10.016;2023-09-18T02:19:21;18.50;99.90
29713;DHT22;16623;53.632;10.016;2023-09-18T02:21:46;18.40;99.90
29713;DHT22;16623;53.632;10.016;2023-09-18T02:24:12;18.40;99.90
29713;DHT22;16623;53.632;10.016;2023-09-18T02:26:38;18.40;99.90
29713;DHT22;16623;53.632;10.016;2023-09-18T02:29:07;18.40;99.90
29713;DHT22;16623;53.632;10.016;2023-09-18T02:31:34;18.40;99.90
29713;DHT22;16623;53.632;10.016;2023-09-18T02:34:00;18.40;99.90
29713;DHT22;16623;53.632;10.016;2023-09-18T02:36:25;18.30;99.90
29713;DHT22;16623;53.632;10.016;2023-09-18T02:38:51;18.30;99.90
29713;DHT22;16623;53.632;10.016;2023-09-18T02:41:16;18.30;99.90
29713;DHT22;16623;53.632;10.016;2023-09-18T02:43:42;18.30;99.90
29713;DHT22;16623;53.632;10.016;2023-09-18T02:46:08;18.30;99.90
29713;DHT22;16623;53.632;10.016;2023-09-18T02:48:34;18.30;99.90
29713;DHT22;16623;53.632;10.016;2023-09-18T02:51:01;18.30;99.90
29713;DHT22;16623;53.632;10.016;2023-09-18T02:53:27;18.30;99.90
29713;DHT22;16623;53.632;10.016;2023-09-18T02:55:57;18.30;99.90
29713;DHT22;16623;53.632;10.016;2023-09-18T02:58:23;18.30;99.90
29713;DHT22;16623;53.632;10.016;2023-09-18T03:00:51;18.30;99.90
29713;DHT22;16623;53.632;10.016;2023-09-18T03:03:17;18.30;99.90
29713;DHT22;16623;53.632;10.016;2023-09-18T03:05:44;18.30;99.90
29713;DHT22;16623;53.632;10.016;2023-09-18T03:08:10;18.20;99.90
29713;DHT22;16623;53.632;10.016;2023-09-18T03:10:38;18.20;99.90
29713;DHT22;16623;53.632;10.016;2023-09-18T03:13:08;18.20;99.90
29713;DHT22;16623;53.632;10.016;2023-09-18T03:15:35;18.20;99.90
29713;DHT22;16623;53.632;10.016;2023-09-18T03:18:02;18.20;99.90
29713;DHT22;16623;53.632;10.016;2023-09-18T03:20:30;18.20;99.90
29713;DHT22;16623;53.632;10.016;2023-09-18T03:22:58;18.20;99.90
29713;DHT22;16623;53.632;10.016;2023-09-18T03:25:24;18.20;99.90
29713;DHT22;16623;53.632;10.016;2023-09-18T03:27:51;18.20;99.90
29713;DHT22;16623;53.632;10.016;2023-09-18T03:30:18;18.20;99.90
29713;DHT22;16623;53.632;10.016;2023-09-18T03:32:44;18.20;99.90
29713;DHT22;16623;53.632;10.016;2023-09-18T03:35:11;18.20;99.90
29713;DHT22;16623;53.632;10.016;2023-09-18T03:37:44;18.10;99.90
29713;DHT22;16623;53.632;10.016;2023-09-18T03:40:10;18.10;99.90
29713;DHT22;16623;53.632;10.016;2023-09-18T03:42:35;18.00;99.90
29713;DHT22;16623;53.632;10.016;2023-09-18T03:45:01;17.90;99.90
29713;DHT22;16623;53.632;10.016;2023-09-18T03:47:28;17.90;99.90
29713;DHT22;16623;53.632;10.016;2023-09-18T03:49:54;17.90;99.90
29713;DHT22;16623;53.632;10.016;2023-09-18T03:52:19;17.90;99.90
29713;DHT22;16623;53.632;10.016;2023-09-18T03:54:45;17.90;99.90
29713;DHT22;16623;53.632;10.016;2023-09-18T03:57:10;17.90;99.90
29713;DHT22;16623;53.632;10.016;2023-09-18T03:59:36;17.80;99.90
29713;DHT22;16623;53.632;10.016;2023-09-18T04:02:01;17.90;99.90
29713;DHT22;16623;53.632;10.016;2023-09-18T04:04:28;17.90;99.90
29713;DHT22;16623;53.632;10.016;2023-09-18T04:06:54;17.90;99.90
29713;DHT22;16623;53.632;10.016;2023-09-18T04:09:19;17.90;99.90
29713;DHT22;16623;53.632;10.016;2023-09-18T04:11:45;17.90;99.90
29713;DHT22;16623;53.632;10.016;2023-09-18T04:14:10;18.00;99.90
29713;DHT22;16623;53.632;10.016;2023-09-18T04:16:36;17.90;99.90
29713;DHT22;16623;53.632;10.016;2023-09-18T04:19:03;17.90;99.90
29713;DHT22;16623;53.632;10.016;2023-09-18T04:21:29;17.90;99.90
29713;DHT22;16623;53.632;10.016;2023-09-18T04:23:57;17.90;99.90
29713;DHT22;16623;53.632;10.016;2023-09-18T04:26:27;17.90;99.90
29713;DHT22;16623;53.632;10.016;2023-09-18T04:28:57;17.90;99.90
29713;DHT22;16623;53.632;10.016;2023-09-18T04:31:23;17.80;99.90
29713;DHT22;16623;53.632;10.016;2023-09-18T04:33:48;17.70;99.90
29713;DHT22;16623;53.632;10.016;2023-09-18T04:36:15;17.70;99.90
29713;DHT22;16623;53.632;10.016;2023-09-18T04:38:40;17.70;99.90
29713;DHT22;16623;53.632;10.016;2023-09-18T04:41:06;17.70;99.90
29713;DHT22;16623;53.632;10.016;2023-09-18T04:43:36;17.70;99.90
29713;DHT22;16623;53.632;10.016;2023-09-18T04:46:02;17.70;99.90
29713;DHT22;16623;53.632;10.016;2023-09-18T04:48:30;17.70;99.90
29713;DHT22;16623;53.632;10.016;2023-09-18T04:50:57;17.70;99.90
29713;DHT22;16623;53.632;10.016;2023-09-18T04:53:27;17.70;99.90
29713;DHT22;16623;53.632;10.016;2023-09-18T04:55:53;17.60;99.90
29713;DHT22;16623;53.632;10.016;2023-09-18T04:58:19;17.60;99.90
29713;DHT22;16623;53.632;10.016;2023-09-18T05:00:44;17.60;99.90
29713;DHT22;16623;53.632;10.016;2023-09-18T05:03:10;17.60;99.90
29713;DHT22;16623;53.632;10.016;2023-09-18T05:05:36;17.60;99.90
29713;DHT22;16623;53.632;10.016;2023-09-18T05:08:03;17.60;99.90
29713;DHT22;16623;53.632;10.016;2023-09-18T05:10:30;17.50;99.90
29713;DHT22;16623;53.632;10.016;2023-09-18T05:12:56;17.50;99.90
29713;DHT22;16623;53.632;10.016;2023-09-18T05:15:24;17.30;99.90
29713;DHT22;16623;53.632;10.016;2023-09-18T05:17:57;17.40;99.90
29713;DHT22;16623;53.632;10.016;2023-09-18T05:20:28;17.40;99.90
29713;DHT22;16623;53.632;10.016;2023-09-18T05:22:55;17.50;99.90
29713;DHT22;16623;53.632;10.016;2023-09-18T05:25:22;17.40;99.90
29713;DHT22;16623;53.632;10.016;2023-09-18T05:27:49;17.50;99.90
29713;DHT22;16623;53.632;10.016;2023-09-18T05:30:25;17.50;99.90
29713;DHT22;16623;53.632;10.016;2023-09-18T05:32:53;17.50;99.90
29713;DHT22;16623;53.632;10.016;2023-09-18T05:35:19;17.50;99.90
29713;DHT22;16623;53.632;10.016;2023-09-18T05:37:44;17.60;99.90
29713;DHT22;16623;53.632;10.016;2023-09-18T05:40:11;17.60;99.90
29713;DHT22;16623;53.632;10.016;2023-09-18T05:42:39;17.60;99.90
29713;DHT22;16623;53.632;10.016;2023-09-18T05:45:05;17.70;99.90
29713;DHT22;16623;53.632;10.016;2023-09-18T05:47:34;17.70;99.90
29713;DHT22;16623;53.632;10.016;2023-09-18T05:50:02;17.80;99.90
29713;DHT22;16623;53.632;10.016;2023-09-18T05:52:29;17.80;99.90
29713;DHT22;16623;53.632;10.016;2023-09-18T05:54:54;17.90;99.90
29713;DHT22;16623;53.632;10.016;2023-09-18T05:57:20;17.90;99.90
29713;DHT22;16623;53.632;10.016;2023-09-18T05:59:45;17.90;99.90
29713;DHT22;16623;53.632;10.016;2023-09-18T06:02:11;17.90;99.90
29713;DHT22;16623;53.632;10.016;2023-09-18T06:04:37;18.00;99.90
29713;DHT22;16623;53.632;10.016;2023-09-18T06:07:03;17.90;99.90
29713;DHT22;16623;53.632;10.016;2023-09-18T06:09:29;18.00;99.90
29713;DHT22;16623;53.632;10.016;2023-09-18T06:11:54;18.00;99.90
29713;DHT22;16623;53.632;10.016;2023-09-18T06:14:20;18.10;99.90
29713;DHT22;16623;53.632;10.016;2023-09-18T06:16:46;18.20;99.90
29713;DHT22;16623;53.632;10.016;2023-09-18T06:19:11;18.30;99.90
29713;DHT22;16623;53.632;10.016;2023-09-18T06:21:37;18.30;99.90
29713;DHT22;16623;53.632;10.016;2023-09-18T06:24:02;18.40;99.90
29713;DHT22;16623;53.632;10.016;2023-09-18T06:26:28;18.40;99.90
29713;DHT22;16623;53.632;10.016;2023-09-18T06:28:54;18.60;99.90
29713;DHT22;16623;53.632;10.016;2023-09-18T06:31:21;18.60;99.90
29713;DHT22;16623;53.632;10.016;2023-09-18T06:33:46;18.70;99.90
29713;DHT22;16623;53.632;10.016;2023-09-18T06:36:13;18.60;99.90
29713;DHT22;16623;53.632;10.016;2023-09-18T06:38:38;18.60;99.90
29713;DHT22;16623;53.632;10.016;2023-09-18T06:41:04;18.70;99.90
29713;DHT22;16623;53.632;10.016;2023-09-18T06:43:30;18.80;99.90
29713;DHT22;16623;53.632;10.016;2023-09-18T06:45:55;18.80;99.90
29713;DHT22;16623;53.632;10.016;2023-09-18T06:48:23;18.80;99.90
29713;DHT22;16623;53.632;10.016;2023-09-18T06:50:49;18.90;99.90
29713;DHT22;16623;53.632;10.016;2023-09-18T06:53:14;18.90;99.90
29713;DHT22;16623;53.632;10.016;2023-09-18T06:55:40;18.90;99.90
29713;DHT22;16623;53.632;10.016;2023-09-18T06:58:06;19.00;99.90
29713;DHT22;16623;53.632;10.016;2023-09-18T07:00:31;19.00;99.90
29713;DHT22;16623;53.632;10.016;2023-09-18T07:02:57;19.00;99.90
29713;DHT22;16623;53.632;10.016;2023-09-18T07:05:22;19.00;99.90
29713;DHT22;16623;53.632;10.016;2023-09-18T07:07:48;19.00;99.90
29713;DHT22;16623;53.632;10.016;2023-09-18T07:10:14;19.10;99.90
29713;DHT22;16623;53.632;10.016;2023-09-18T07:12:39;19.10;99.90
29713;DHT22;16623;53.632;10.016;2023-09-18T07:15:05;19.10;99.90
29713;DHT22;16623;53.632;10.016;2023-09-18T07:17:34;19.20;99.90
29713;DHT22;16623;53.632;10.016;2023-09-18T07:20:01;19.20;99.90
29713;DHT22;16623;53.632;10.016;2023-09-18T07:22:26;19.30;99.90
29713;DHT22;16623;53.632;10.016;2023-09-18T07:24:52;19.30;99.90
29713;DHT22;16623;53.632;10.016;2023-09-18T07:27:18;19.40;99.90
29713;DHT22;16623;53.632;10.016;2023-09-18T07:29:43;19.50;99.90
29713;DHT22;16623;53.632;10.016;2023-09-18T07:32:09;19.60;99.90
29713;DHT22;16623;53.632;10.016;2023-09-18T07:34:35;19.60;99.90
29713;DHT22;16623;53.632;10.016;2023-09-18T07:37:00;19.70;99.90
29713;DHT22;16623;53.632;10.016;2023-09-18T07:39:26;19.70;99.90
29713;DHT22;16623;53.632;10.016;2023-09-18T07:41:52;19.80;99.90
29713;DHT22;16623;53.632;10.016;2023-09-18T07:44:21;19.90;99.90
29713;DHT22;16623;53.632;10.016;2023-09-18T07:46:47;20.00;99.90
29713;DHT22;16623;53.632;10.016;2023-09-18T07:49:13;20.00;99.90
29713;DHT22;16623;53.632;10.016;2023-09-18T07:51:39;20.00;99.90
29713;DHT22;16623;53.632;10.016;2023-09-18T07:54:07;20.10;99.90
29713;DHT22;16623;53.632;10.016;2023-09-18T07:56:32;20.20;99.90
29713;DHT22;16623;53.632;10.016;2023-09-18T07:59:00;20.30;99.90
29713;DHT22;16623;53.632;10.016;2023-09-18T08:01:25;20.40;99.90
29713;DHT22;16623;53.632;10.016;2023-09-18T08:03:51;20.40;99.90
29713;DHT22;16623;53.632;10.016;2023-09-18T08:06:16;20.50;99.90
29713;DHT22;16623;53.632;10.016;2023-09-18T08:08:44;20.60;99.90
29713;DHT22;16623;53.632;10.016;2023-09-18T08:11:10;20.70;99.90
29713;DHT22;16623;53.632;10.016;2023-09-18T08:13:37;20.70;99.90
29713;DHT22;16623;53.632;10.016;2023-09-18T08:16:06;20.80;99.90
29713;DHT22;16623;53.632;10.016;2023-09-18T08:18:32;20.90;99.90
29713;DHT22;16623;53.632;10.016;2023-09-18T08:20:57;20.80;99.90
29713;DHT22;16623;53.632;10.016;2023-09-18T08:23:26;21.00;99.90
29713;DHT22;16623;53.632;10.016;2023-09-18T08:25:52;21.00;99.90
29713;DHT22;16623;53.632;10.016;2023-09-18T08:28:21;21.10;99.90
29713;DHT22;16623;53.632;10.016;2023-09-18T08:30:47;21.20;99.90
29713;DHT22;16623;53.632;10.016;2023-09-18T08:33:13;21.30;99.90
29713;DHT22;16623;53.632;10.016;2023-09-18T08:35:39;21.30;99.90
29713;DHT22;16623;53.632;10.016;2023-09-18T08:38:08;21.30;99.90
29713;DHT22;16623;53.632;10.016;2023-09-18T08:40:33;21.40;99.90
29713;DHT22;16623;53.632;10.016;2023-09-18T08:43:01;21.40;99.90
29713;DHT22;16623;53.632;10.016;2023-09-18T08:45:51;21.40;99.90
29713;DHT22;16623;53.632;10.016;2023-09-18T08:48:21;21.30;99.90
29713;DHT22;16623;53.632;10.016;2023-09-18T08:50:48;21.30;99.90
29713;DHT22;16623;53.632;10.016;2023-09-18T08:53:14;21.30;99.90
29713;DHT22;16623;53.632;10.016;2023-09-18T08:55:40;21.20;99.90
29713;DHT22;16623;53.632;10.016;2023-09-18T08:58:07;21.20;99.90
29713;DHT22;16623;53.632;10.016;2023-09-18T09:00:35;21.20;99.90
29713;DHT22;16623;53.632;10.016;2023-09-18T09:03:02;21.20;99.90
29713;DHT22;16623;53.632;10.016;2023-09-18T09:05:28;21.10;99.90
29713;DHT22;16623;53.632;10.016;2023-09-18T09:07:53;21.10;99.90
29713;DHT22;16623;53.632;10.016;2023-09-18T09:10:19;21.20;99.90
29713;DHT22;16623;53.632;10.016;2023-09-18T09:12:59;21.10;99.90
29713;DHT22;16623;53.632;10.016;2023-09-18T09:15:33;21.20;99.90
29713;DHT22;16623;53.632;10.016;2023-09-18T09:18:04;21.20;99.90
29713;DHT22;16623;53.632;10.016;2023-09-18T09:20:30;21.20;99.90
29713;DHT22;16623;53.632;10.016;2023-09-18T09:23:01;21.20;99.90
29713;DHT22;16623;53.632;10.016;2023-09-18T09:25:28;21.30;99.90
29713;DHT22;16623;53.632;10.016;2023-09-18T09:27:57;21.30;99.90
29713;DHT22;16623;53.632;10.016;2023-09-18T09:30:27;21.40;99.90
29713;DHT22;16623;53.632;10.016;2023-09-18T09:32:55;21.40;99.90
29713;DHT22;16623;53.632;10.016;2023-09-18T09:35:31;21.60;99.90
29713;DHT22;16623;53.632;10.016;2023-09-18T09:38:11;21.80;99.90
29713;DHT22;16623;53.632;10.016;2023-09-18T09:40:41;21.90;99.90
29713;DHT22;16623;53.632;10.016;2023-09-18T09:43:12;22.00;99.90
29713;DHT22;16623;53.632;10.016;2023-09-18T09:45:41;22.00;99.90
29713;DHT22;16623;53.632;10.016;2023-09-18T09:48:07;22.00;99.90
29713;DHT22;16623;53.632;10.016;2023-09-18T09:50:43;22.00;99.90
29713;DHT22;16623;53.632;10.016;2023-09-18T09:53:11;22.10;99.90
29713;DHT22;16623;53.632;10.016;2023-09-18T09:55:39;22.10;99.90
29713;DHT22;16623;53.632;10.016;2023-09-18T09:58:06;22.20;99.90
29713;DHT22;16623;53.632;10.016;2023-09-18T10:00:49;22.20;99.90
29713;DHT22;16623;53.632;10.016;2023-09-18T10:03:20;22.30;99.90
29713;DHT22;16623;53.632;10.016;2023-09-18T10:05:51;22.30;99.90
29713;DHT22;16623;53.632;10.016;2023-09-18T10:08:20;22.30;99.90
29713;DHT22;16623;53.632;10.016;2023-09-18T10:10:55;22.30;99.90
29713;DHT22;16623;53.632;10.016;2023-09-18T10:13:32;22.50;99.90
29713;DHT22;16623;53.632;10.016;2023-09-18T10:15:59;22.50;99.90
29713;DHT22;16623;53.632;10.016;2023-09-18T10:18:42;22.60;99.90
29713;DHT22;16623;53.632;10.016;2023-09-18T10:24:24;22.60;99.90
29713;DHT22;16623;53.632;10.016;2023-09-18T10:26:55;22.60;99.90
29713;DHT22;16623;53.632;10.016;2023-09-18T10:29:22;22.60;99.90
29713;DHT22;16623;53.632;10.016;2023-09-18T10:31:50;22.60;99.90
29713;DHT22;16623;53.632;10.016;2023-09-18T10:34:17;22.70;99.90
29713;DHT22;16623;53.632;10.016;2023-09-18T10:36:48;21.90;99.90
29713;DHT22;16623;53.632;10.016;2023-09-18T10:39:14;22.80;99.90
29713;DHT22;16623;53.632;10.016;2023-09-18T10:41:47;22.90;99.90
29713;DHT22;16623;53.632;10.016;2023-09-18T10:44:15;23.00;99.90
29713;DHT22;16623;53.632;10.016;2023-09-18T10:46:42;23.00;99.90
29713;DHT22;16623;53.632;10.016;2023-09-18T10:49:07;23.00;99.90
29713;DHT22;16623;53.632;10.016;2023-09-18T10:51:33;23.00;99.90
29713;DHT22;16623;53.632;10.016;2023-09-18T10:54:03;23.00;99.90
29713;DHT22;16623;53.632;10.016;2023-09-18T10:56:29;23.10;99.90
29713;DHT22;16623;53.632;10.016;2023-09-18T10:58:59;23.10;99.90
29713;DHT22;16623;53.632;10.016;2023-09-18T11:01:28;23.20;99.90
29713;DHT22;16623;53.632;10.016;2023-09-18T11:04:03;23.20;99.90
29713;DHT22;16623;53.632;10.016;2023-09-18T11:06:29;23.30;99.90
29713;DHT22;16623;53.632;10.016;2023-09-18T11:09:03;23.30;99.90
29713;DHT22;16623;53.632;10.016;2023-09-18T11:11:30;23.30;99.90
29713;DHT22;16623;53.632;10.016;2023-09-18T11:13:58;23.50;99.90
29713;DHT22;16623;53.632;10.016;2023-09-18T11:21:26;23.80;99.90
29713;DHT22;16623;53.632;10.016;2023-09-18T11:24:21;23.80;99.90
29713;DHT22;16623;53.632;10.016;2023-09-18T11:26:49;23.70;99.90
29713;DHT22;16623;53.632;10.016;2023-09-18T11:29:22;23.70;99.90
29713;DHT22;16623;53.632;10.016;2023-09-18T11:31:50;23.80;99.90
29713;DHT22;16623;53.632;10.016;2023-09-18T11:34:25;23.70;99.90
29713;DHT22;16623;53.632;10.016;2023-09-18T11:36:54;23.70;99.90
29713;DHT22;16623;53.632;10.016;2023-09-18T11:39:40;23.70;99.90
29713;DHT22;16623;53.632;10.016;2023-09-18T11:42:10;23.60;99.90
29713;DHT22;16623;53.632;10.016;2023-09-18T11:44:36;23.50;99.90
29713;DHT22;16623;53.632;10.016;2023-09-18T11:47:08;23.50;99.90
29713;DHT22;16623;53.632;10.016;2023-09-18T11:49:39;23.50;99.90
29713;DHT22;16623;53.632;10.016;2023-09-18T11:52:07;23.60;99.90
29713;DHT22;16623;53.632;10.016;2023-09-18T11:54:33;23.50;99.90
29713;DHT22;16623;53.632;10.016;2023-09-18T11:57:03;23.50;99.90
29713;DHT22;16623;53.632;10.016;2023-09-18T11:59:37;23.60;99.90
29713;DHT22;16623;53.632;10.016;2023-09-18T12:02:03;23.50;99.90
29713;DHT22;16623;53.632;10.016;2023-09-18T12:04:31;23.50;99.90
29713;DHT22;16623;53.632;10.016;2023-09-18T12:06:58;23.60;99.90
29713;DHT22;16623;53.632;10.016;2023-09-18T12:09:29;23.60;99.90
29713;DHT22;16623;53.632;10.016;2023-09-18T12:11:55;23.60;99.90
29713;DHT22;16623;53.632;10.016;2023-09-18T12:14:23;23.60;99.90
29713;DHT22;16623;53.632;10.016;2023-09-18T12:16:49;23.60;99.90
29713;DHT22;16623;53.632;10.016;2023-09-18T12:19:18;23.60;99.90
29713;DHT22;16623;53.632;10.016;2023-09-18T12:21:47;23.70;99.90
29713;DHT22;16623;53.632;10.016;2023-09-18T12:24:23;23.60;99.90
29713;DHT22;16623;53.632;10.016;2023-09-18T12:26:49;23.60;99.90
29713;DHT22;16623;53.632;10.016;2023-09-18T12:29:15;23.60;99.90
29713;DHT22;16623;53.632;10.016;2023-09-18T12:31:41;23.60;99.90
29713;DHT22;16623;53.632;10.016;2023-09-18T12:34:21;23.60;99.90
29713;DHT22;16623;53.632;10.016;2023-09-18T12:36:48;23.70;99.90
29713;DHT22;16623;53.632;10.016;2023-09-18T12:39:14;23.80;99.90
29713;DHT22;16623;53.632;10.016;2023-09-18T12:41:46;23.70;99.90
29713;DHT22;16623;53.632;10.016;2023-09-18T12:44:12;23.70;99.90
29713;DHT22;16623;53.632;10.016;2023-09-18T12:46:40;23.70;99.90
29713;DHT22;16623;53.632;10.016;2023-09-18T12:49:19;23.60;99.90
29713;DHT22;16623;53.632;10.016;2023-09-18T12:51:55;23.70;99.90
29713;DHT22;16623;53.632;10.016;2023-09-18T12:54:20;23.70;99.90
29713;DHT22;16623;53.632;10.016;2023-09-18T12:56:46;23.70;99.90
29713;DHT22;16623;53.632;10.016;2023-09-18T12:59:11;23.70;99.90
29713;DHT22;16623;53.632;10.016;2023-09-18T13:01:38;23.70;99.90
29713;DHT22;16623;53.632;10.016;2023-09-18T13:04:04;23.70;99.90
29713;DHT22;16623;53.632;10.016;2023-09-18T13:06:31;23.70;99.90
29713;DHT22;16623;53.632;10.016;2023-09-18T13:09:18;23.80;99.90
29713;DHT22;16623;53.632;10.016;2023-09-18T13:11:56;23.80;99.90
29713;DHT22;16623;53.632;10.016;2023-09-18T13:14:21;23.80;99.90
29713;DHT22;16623;53.632;10.016;2023-09-18T13:16:47;23.80;99.90
29713;DHT22;16623;53.632;10.016;2023-09-18T13:19:13;23.80;99.90
29713;DHT22;16623;53.632;10.016;2023-09-18T13:21:43;23.90;99.90
29713;DHT22;16623;53.632;10.016;2023-09-18T13:24:24;24.00;99.90
29713;DHT22;16623;53.632;10.016;2023-09-18T13:26:52;24.00;99.90
29713;DHT22;16623;53.632;10.016;2023-09-18T13:29:18;24.10;99.90
29713;DHT22;16623;53.632;10.016;2023-09-18T13:31:43;24.10;99.90
29713;DHT22;16623;53.632;10.016;2023-09-18T13:34:09;23.90;99.90
29713;DHT22;16623;53.632;10.016;2023-09-18T13:36:34;23.80;99.90
29713;DHT22;16623;53.632;10.016;2023-09-18T13:39:00;23.80;99.90
29713;DHT22;16623;53.632;10.016;2023-09-18T13:41:26;24.50;99.90
29713;DHT22;16623;53.632;10.016;2023-09-18T13:43:51;23.60;99.90
29713;DHT22;16623;53.632;10.016;2023-09-18T13:46:21;23.50;99.90
29713;DHT22;16623;53.632;10.016;2023-09-18T13:48:46;23.40;99.90
29713;DHT22;16623;53.632;10.016;2023-09-18T13:51:13;23.50;99.90
29713;DHT22;16623;53.632;10.016;2023-09-18T13:53:39;23.50;99.90
29713;DHT22;16623;53.632;10.016;2023-09-18T13:56:06;23.50;99.90
29713;DHT22;16623;53.632;10.016;2023-09-18T13:58:32;23.50;99.90
29713;DHT22;16623;53.632;10.016;2023-09-18T14:00:58;23.50;99.90
29713;DHT22;16623;53.632;10.016;2023-09-18T14:03:23;23.50;99.90
29713;DHT22;16623;53.632;10.016;2023-09-18T14:05:49;23.50;99.90
29713;DHT22;16623;53.632;10.016;2023-09-18T14:08:15;23.50;99.90
29713;DHT22;16623;53.632;10.016;2023-09-18T14:10:42;23.50;99.90
29713;DHT22;16623;53.632;10.016;2023-09-18T14:13:08;23.50;99.90
29713;DHT22;16623;53.632;10.016;2023-09-18T14:15:34;23.50;99.90
29713;DHT22;16623;53.632;10.016;2023-09-18T14:18:02;23.50;99.90
29713;DHT22;16623;53.632;10.016;2023-09-18T14:20:28;23.40;99.90
29713;DHT22;16623;53.632;10.016;2023-09-18T14:22:54;23.40;99.90
29713;DHT22;16623;53.632;10.016;2023-09-18T14:25:20;23.30;99.90
29713;DHT22;16623;53.632;10.016;2023-09-18T14:27:47;23.30;99.90
29713;DHT22;16623;53.632;10.016;2023-09-18T14:30:13;23.30;99.90
29713;DHT22;16623;53.632;10.016;2023-09-18T14:32:39;23.30;99.90
29713;DHT22;16623;53.632;10.016;2023-09-18T14:35:06;23.40;99.90
29713;DHT22;16623;53.632;10.016;2023-09-18T14:37:34;23.50;99.90
29713;DHT22;16623;53.632;10.016;2023-09-18T14:40:00;23.50;99.90
29713;DHT22;16623;53.632;10.016;2023-09-18T14:42:25;23.50;99.90
29713;DHT22;16623;53.632;10.016;2023-09-18T14:44:51;23.50;99.90
29713;DHT22;16623;53.632;10.016;2023-09-18T14:47:17;23.60;99.90
29713;DHT22;16623;53.632;10.016;2023-09-18T14:49:42;23.70;99.90
29713;DHT22;16623;53.632;10.016;2023-09-18T14:52:13;23.90;99.90
29713;DHT22;16623;53.632;10.016;2023-09-18T14:54:40;23.90;99.90
29713;DHT22;16623;53.632;10.016;2023-09-18T14:57:06;24.00;99.90
29713;DHT22;16623;53.632;10.016;2023-09-18T14:59:32;23.90;99.90
29713;DHT22;16623;53.632;10.016;2023-09-18T15:02:01;23.80;99.90
29713;DHT22;16623;53.632;10.016;2023-09-18T15:04:28;23.70;99.90
29713;DHT22;16623;53.632;10.016;2023-09-18T15:06:53;23.60;99.90
29713;DHT22;16623;53.632;10.016;2023-09-18T15:09:19;23.60;99.90
29713;DHT22;16623;53.632;10.016;2023-09-18T15:11:44;23.50;99.90
29713;DHT22;16623;53.632;10.016;2023-09-18T15:14:10;23.40;99.90
29713;DHT22;16623;53.632;10.016;2023-09-18T15:16:36;23.40;99.90
29713;DHT22;16623;53.632;10.016;2023-09-18T15:19:02;23.50;99.90
29713;DHT22;16623;53.632;10.016;2023-09-18T15:21:31;23.50;99.90
29713;DHT22;16623;53.632;10.016;2023-09-18T15:23:56;23.50;99.90
29713;DHT22;16623;53.632;10.016;2023-09-18T15:26:23;23.60;99.90